Hawaii METAR Reports

 

PHOG - Kahului, Hawaii, USA
Distance from station: WNW 8mi, 13km
Updated: Mon, 27-Mar-2017 9:54pm HST
Clear
Clear
 Wind from SSE
Wind: SSE 8 mph , 13 km/h
Temperature: 70°F , 21°C
Dew Point: 64°F , 18°C
Humidity: 83%
Barometer: 30.14 inHg , 1020.7 hPa
Clouds: Clear
Visibility: 10 miles , 16 km
2017/03/28 07:54 PHOG 280754Z 15007KT 10SM CLR 21/18 A3014 RMK AO2 SLP211 T02110178
PHJH - Lahaina/West Mau, Hawaii, USA
Distance from station: WNW 24mi, 39km
Updated: Mon, 27-Mar-2017 5:45pm HST
NOT Current
Partly Cloudy
Partly Cloudy
 Wind from E
Wind: E 15 mph , 24 km/h
Temperature: 81°F , 27°C
Heat Index: 82°F , 28°C
Dew Point: 63°F , 17°C
Humidity: 54%
Barometer: 30.06 inHg , 1017.9 hPa
Clouds: Partly Cloudy
Visibility: 15 miles , 24 km
Cloud details: Partly Cloudy 4500 ft
2017/03/28 03:45 PHJH 280345Z 08013KT 15SM SCT045 27/17 A3006 RMK LAST
 
PHNY - Lanai City Airpo, Hawaii, USA
Distance from station: W 40mi, 65km
Updated: Mon, 27-Mar-2017 9:56pm HST
Clear
Clear
 Wind from NNE
Wind: NNE 8 mph , 13 km/h
Temperature: 68°F , 20°C
Dew Point: 64°F , 18°C
Humidity: 88%
Barometer: 30.20 inHg , 1022.7 hPa
Clouds: Clear
Visibility: 10 miles , 16 km
2017/03/28 07:56 PHNY 280756Z AUTO 02007KT 10SM CLR 20/18 A3020 RMK AO2 SLP205 T02000183
PHMK - Molokai, Hawaii, USA
Distance from station: WNW 55mi, 88km
Updated: Mon, 27-Mar-2017 9:54pm HST
Clear
Clear
 Wind from NE
Wind: NE 9 mph , 15 km/h
Temperature: 73°F , 23°C
Dew Point: 64°F , 18°C
Humidity: 74%
Barometer: 30.16 inHg , 1021.3 hPa
Clouds: Clear
Visibility: 10 miles , 16 km
2017/03/28 07:54 PHMK 280754Z AUTO 05008KT 10SM CLR 23/18 A3016 RMK AO2 SLP214 T02280183 TSNO
 
PHKO - Kailua/Kona, Hawaii, USA
Distance from station: SSE 79mi, 128km
Updated: Mon, 27-Mar-2017 9:53pm HST
Clear
Clear
 Wind from SE
Wind: SE 13 mph , 20 km/h
Temperature: 77°F , 25°C
Dew Point: 63°F , 17°C
Humidity: 61%
Barometer: 30.10 inHg , 1019.3 hPa
Clouds: Clear
Visibility: 10 miles , 16 km
2017/03/28 07:53 PHKO 280753Z 13011KT 10SM CLR 25/17 A3010 RMK AO2 SLP194 T02500172
PHSF - Bradshaw Aaf/Haw, Hawaii, USA
Distance from station: SE 90mi, 145km
Updated: Mon, 27-Mar-2017 9:56pm HST
Clear
Clear
 Wind from SE
Wind: SE 5 mph , 7 km/h
Temperature: 45°F , 7°C
Wind Chill: 42°F , 6°C
Dew Point: 37°F , 3°C
Humidity: 76%
Barometer: 30.43 inHg , 1030.5 hPa
Clouds: Clear
Visibility: 10 miles , 16 km
2017/03/28 07:56 PHSF 280756Z AUTO 13004KT 10SM CLR 07/03 A3043 RMK AO2 SLP201 T00690026 $
 
PHNG - Kaneohe Mcas, Hawaii, USA
Distance from station: WNW 102mi, 164km
Updated: Mon, 27-Mar-2017 4:57pm HST
NOT Current
Partly Cloudy
Partly Cloudy
 Wind from E
Wind: E 8 mph , 13 km/h, Gust: 16 mph , 26 km/h
Temperature: 81°F , 27°C
Heat Index: 84°F , 29°C
Dew Point: 68°F , 20°C
Humidity: 66%
Barometer: 30.04 inHg , 1017.3 hPa
Clouds: Partly Cloudy
Visibility: 7 miles , 11 km
Cloud details: Partly Cloudy 4800 ft
2017/03/28 02:57 PHNG 280257Z 09007G14KT 7SM SCT048 27/20 A3004 RMK SLP169 T02720200 56009
PHNL - Honolulu, Hawaii, USA
Distance from station: WNW 108mi, 174km
Updated: Mon, 27-Mar-2017 9:53pm HST
Mostly Cloudy
Mostly Cloudy
 Wind from N
Wind: N 5 mph , 7 km/h
Temperature: 77°F , 25°C
Dew Point: 64°F , 18°C
Humidity: 65%
Barometer: 30.15 inHg , 1021 hPa
Clouds: Mostly Cloudy
Visibility: 10 miles , 16 km
Cloud details: Few Clouds 2400 ft
Mostly Cloudy 3700 ft
2017/03/28 07:53 PHNL 280753Z 01004KT 10SM FEW024 BKN037 25/18 A3015 RMK AO2 SLP208 T02500178 $
 
PHTO - Hilo, Hawaii, USA
Distance from station: SE 114mi, 183km
Updated: Mon, 27-Mar-2017 9:53pm HST
Light rain, Mostly cloudy
Light rain, Mostly cloudy
 Wind from WSW
Wind: WSW 5 mph , 7 km/h
Temperature: 72°F , 22°C
Dew Point: 66°F , 19°C
Humidity: 83%
Barometer: 30.17 inHg , 1021.7 hPa
Summary: Light Rain
Clouds: Mostly Cloudy
Visibility: 6 miles , 10 km
Cloud details: Partly Cloudy 2400 ft
Mostly Cloudy 3700 ft
Mostly Cloudy 4600 ft
2017/03/28 07:53 PHTO 280753Z 25004KT 6SM -RA SCT024 BKN037 BKN046 22/19 A3017 RMK AO2 RAB49 SLP216 P0000 T02220194
PHJR - Kalaeloa, Hawaii, USA
Distance from station: WNW 117mi, 189km
Updated: Mon, 27-Mar-2017 9:53pm HST
Overcast
Overcast
 Wind from SW
Wind: SW 3 mph , 6 km/h
Temperature: 75°F , 24°C
Dew Point: 66°F , 19°C
Humidity: 74%
Barometer: 30.16 inHg , 1021.3 hPa
Clouds: Overcast
Visibility: 10 miles , 16 km
Cloud details: Few Clouds 3900 ft
Few Clouds 4600 ft
Overcast 6000 ft
2017/03/28 07:53 PHJR 280753Z AUTO 22003KT 10SM FEW039 FEW046 OVC060 24/19 A3016 RMK AO2 RAE50 SLP219 P0007 T02440194 TSNO
 
PHHI - Wheeler Afb/Oahu, Hawaii, USA
Distance from station: WNW 120mi, 193km
Updated: Mon, 27-Mar-2017 9:58pm HST
Mostly Cloudy
Mostly Cloudy
 Wind from NNE
Wind: NNE 5 mph , 7 km/h
Temperature: 72°F , 22°C
Dew Point: 66°F , 19°C
Humidity: 83%
Barometer: 30.16 inHg , 1021.3 hPa
Clouds: Mostly Cloudy
Visibility: 10 miles , 16 km
Cloud details: Mostly Cloudy 2600 ft
2017/03/28 07:58 PHHI 280758Z 03004KT 10SM BKN026 22/19 A3016 RMK AO2A SLP203 T02160190 $
PHLI - Lihue/Kauai Is, Hawaii, USA
Distance from station: WNW 209mi, 336km
Updated: Mon, 27-Mar-2017 9:53pm HST
Mostly Cloudy
Mostly Cloudy
 Wind from ENE
Wind: ENE 13 mph , 20 km/h
Temperature: 73°F , 23°C
Dew Point: 66°F , 19°C
Humidity: 78%
Barometer: 30.16 inHg , 1021.3 hPa
Clouds: Mostly Cloudy
Visibility: 10 miles , 16 km
Cloud details: Few Clouds 1700 ft
Mostly Cloudy 3300 ft
2017/03/28 07:53 PHLI 280753Z 07011KT 10SM FEW017 BKN033 23/19 A3016 RMK AO2 SLP211 T02330194
 
PHBK - Barking Sands/Ka, Hawaii, USA
Distance from station: WNW 237mi, 382km
Updated: Mon, 27-Mar-2017 9:56pm HST
Mostly Cloudy
Mostly Cloudy
 Wind from calm
Wind: Calm
Barometer: 30.13 inHg , 1020.3 hPa
Clouds: Mostly Cloudy
Visibility: 10 miles , 16 km
Cloud details: Mostly Cloudy 5500 ft
2017/03/28 07:56 PHBK 280756Z AUTO 00000KT 10SM BKN055 A3013 RMK AO2 SLP206